Time;durP1;ratioP1;P1;durP2;ratioP2;P2;SDS_P1;SDS_P2;PMS_P1;PMS_P2;Temp;Humidity;BMP_temperature;BMP_pressure;BME280_temperature;BME280_humidity;BME280_pressure;Samples;Min_cycle;Max_cycle;Signal;HPM_P1;HPM_P2
2022/07/26 00:01:39;;;;;;;8.20;3.00;;;;;;;23.40;74.46;96134.28;5036266;28;20228;-70
2022/07/26 00:04:06;;;;;;;9.50;2.80;;;;;;;23.33;73.25;96130.19;5036582;28;20213;-70
2022/07/26 00:06:33;;;;;;;6.07;2.55;;;;;;;23.21;72.47;96126.09;5037510;28;20296;-70
2022/07/26 00:08:59;;;;;;;5.00;2.90;;;;;;;23.47;72.63;96132.19;5036831;28;20209;-70
2022/07/26 00:11:27;;;;;;;7.43;3.05;;;;;;;23.55;74.64;96137.06;5036215;28;20976;-71
2022/07/26 00:13:54;;;;;;;9.38;2.80;;;;;;;23.41;74.30;96133.22;5036725;28;20213;-70
2022/07/26 00:16:21;;;;;;;5.32;2.60;;;;;;;23.40;74.28;96128.91;5036672;28;20222;-70
2022/07/26 00:18:49;;;;;;;4.88;2.55;;;;;;;23.45;74.10;96134.31;5038733;28;20201;-70
2022/07/26 00:21:15;;;;;;;4.63;2.58;;;;;;;23.13;74.99;96127.38;5040291;28;20233;-71
2022/07/26 00:23:42;;;;;;;5.85;2.60;;;;;;;23.26;75.54;96126.13;5040671;28;20224;-70
2022/07/26 00:26:08;;;;;;;6.15;3.15;;;;;;;23.03;74.83;96124.59;5040393;28;20205;-70
2022/07/26 00:28:35;;;;;;;5.32;3.10;;;;;;;23.12;75.21;96127.63;5040542;28;20585;-70
2022/07/26 00:31:01;;;;;;;5.55;2.78;;;;;;;23.30;75.31;96132.59;5040538;28;20205;-70
2022/07/26 00:33:28;;;;;;;6.97;2.65;;;;;;;23.36;77.43;96129.69;5040006;28;20201;-70
2022/07/26 00:35:55;;;;;;;6.00;2.80;;;;;;;23.16;77.23;96129.53;5040320;28;20225;-70
2022/07/26 00:38:22;;;;;;;8.35;3.10;;;;;;;23.21;78.47;96121.50;5039561;28;20545;-70
2022/07/26 00:40:48;;;;;;;4.95;2.55;;;;;;;23.26;78.50;96123.44;5040507;28;20549;-70
2022/07/26 00:43:15;;;;;;;9.63;2.63;;;;;;;23.30;77.94;96127.22;5039928;28;20208;-71
2022/07/26 00:45:42;;;;;;;7.50;2.63;;;;;;;23.30;78.36;96129.91;5040074;28;20206;-70
2022/07/26 00:48:08;;;;;;;3.17;2.20;;;;;;;23.29;77.22;96130.97;5040298;28;20217;-70
2022/07/26 00:50:35;;;;;;;4.15;2.55;;;;;;;23.29;77.36;96128.28;5038287;28;20595;-70
2022/07/26 00:53:03;;;;;;;6.32;2.33;;;;;;;23.30;79.02;96127.22;5039574;28;20225;-70
2022/07/26 00:55:30;;;;;;;9.45;3.00;;;;;;;22.93;77.58;96140.59;5040174;28;20316;-71
2022/07/26 00:57:56;;;;;;;7.72;2.83;;;;;;;23.08;76.83;96135.38;5040506;28;20232;-71
2022/07/26 01:00:26;;;;;;;6.57;2.45;;;;;;;23.24;76.80;96130.94;5040264;28;20212;-70
2022/07/26 01:02:53;;;;;;;10.45;2.53;;;;;;;23.24;78.21;96129.03;5039305;28;20256;-70
2022/07/26 01:05:19;;;;;;;5.05;2.70;;;;;;;23.18;78.67;96126.56;5040069;28;20200;-70
2022/07/26 01:07:47;;;;;;;6.70;2.65;;;;;;;23.18;78.33;96126.56;5040435;28;20201;-70
2022/07/26 01:10:15;;;;;;;6.45;2.75;;;;;;;23.27;78.56;96125.03;5039558;28;20220;-70
2022/07/26 01:12:43;;;;;;;3.55;2.47;;;;;;;23.21;77.58;96132.25;5038821;28;20221;-69
2022/07/26 01:15:11;;;;;;;6.88;2.78;;;;;;;23.23;77.94;96123.94;5040405;28;20225;-70
2022/07/26 01:17:38;;;;;;;4.93;2.90;;;;;;;23.07;78.54;96124.91;5040302;28;20197;-70
2022/07/26 01:20:07;;;;;;;5.45;2.53;;;;;;;23.20;77.65;96132.53;5038943;28;20231;-71
2022/07/26 01:22:35;;;;;;;12.05;2.70;;;;;;;23.19;79.30;96131.69;5039477;28;20221;-70
2022/07/26 01:25:01;;;;;;;5.65;2.38;;;;;;;23.15;79.92;96127.09;5039829;28;20194;-70
2022/07/26 01:27:28;;;;;;;6.78;2.78;;;;;;;22.79;79.78;96130.53;5040401;28;20201;-69
2022/07/26 01:29:54;;;;;;;12.27;2.85;;;;;;;22.65;78.20;96128.50;5038879;28;20209;-71
2022/07/26 01:32:21;;;;;;;4.43;2.47;;;;;;;22.98;76.67;96132.56;5038172;28;20220;-70
2022/07/26 01:34:47;;;;;;;7.95;2.63;;;;;;;23.15;75.93;96132.47;5039585;28;20213;-70
2022/07/26 01:37:14;;;;;;;5.05;2.90;;;;;;;23.18;75.52;96137.34;5039396;28;20205;-70
2022/07/26 01:39:43;;;;;;;8.18;2.50;;;;;;;23.30;75.58;96139.56;5039447;28;20204;-70
2022/07/26 01:42:09;;;;;;;11.10;3.17;;;;;;;23.24;77.45;96136.31;5039300;28;20229;-70
2022/07/26 01:44:36;;;;;;;3.47;2.20;;;;;;;23.16;76.95;96134.09;5038829;28;20337;-70
2022/07/26 01:47:02;;;;;;;6.57;3.08;;;;;;;23.16;77.04;96142.97;5038971;28;20201;-70
2022/07/26 01:49:28;;;;;;;6.25;2.60;;;;;;;23.11;77.87;96140.25;5037000;28;20197;-71
2022/07/26 01:51:55;;;;;;;11.13;2.20;;;;;;;23.10;78.80;96135.13;5038899;28;20232;-69
2022/07/26 01:54:21;;;;;;;6.22;2.60;;;;;;;22.85;80.54;96137.56;5038156;28;20613;-70
2022/07/26 01:56:49;;;;;;;5.45;2.58;;;;;;;22.90;81.42;96129.56;5039028;28;20965;-70
2022/07/26 01:59:16;;;;;;;4.95;2.50;;;;;;;22.91;74.66;96136.53;5039350;28;20205;-70
2022/07/26 02:01:42;;;;;;;5.85;2.20;;;;;;;22.90;71.18;96134.94;5038611;28;20232;-70
2022/07/26 02:04:57;;;;;;;3.35;2.25;;;;;;;23.07;69.91;96133.75;5038189;28;20212;-71
2022/07/26 02:06:55;;;;;;;4.93;2.13;;;;;;;23.21;67.45;96128.78;5038514;28;20224;-70
2022/07/26 02:09:21;;;;;;;2.85;2.10;;;;;;;23.30;73.10;96125.34;5038731;28;20201;-70
2022/07/26 02:11:49;;;;;;;5.43;2.10;;;;;;;23.11;73.98;96116.03;5038620;28;20221;-70
2022/07/26 02:14:16;;;;;;;5.97;2.55;;;;;;;23.24;75.83;96117.50;5037642;28;20205;-70
2022/07/26 02:16:42;;;;;;;5.95;2.58;;;;;;;23.17;78.14;96122.28;5038311;28;20240;-70
2022/07/26 02:19:09;;;;;;;3.53;1.98;;;;;;;22.95;71.82;96111.59;5038622;28;20209;-70
2022/07/26 02:21:36;;;;;;;3.05;1.90;;;;;;;23.14;72.34;96110.16;5034989;28;20240;-69
2022/07/26 02:24:02;;;;;;;3.53;2.22;;;;;;;23.18;74.54;96113.97;5037182;28;20209;-70
2022/07/26 02:26:28;;;;;;;7.80;2.38;;;;;;;23.14;76.75;96118.25;5038616;28;20198;-71
2022/07/26 02:28:56;;;;;;;5.72;1.88;;;;;;;23.19;70.78;96120.13;5038993;28;20201;-70
2022/07/26 02:31:23;;;;;;;4.00;2.00;;;;;;;23.26;72.47;96123.44;5037931;28;20228;-70
2022/07/26 02:33:49;;;;;;;11.48;2.13;;;;;;;23.18;75.65;96121.19;5037758;28;20212;-70
2022/07/26 02:36:16;;;;;;;6.22;1.90;;;;;;;23.11;72.83;96123.31;5037949;28;20231;-69
2022/07/26 02:38:42;;;;;;;2.50;2.00;;;;;;;22.87;70.67;96124.69;5038348;28;20205;-70
2022/07/26 02:41:08;;;;;;;8.05;2.28;;;;;;;23.11;70.29;96123.31;5037220;28;20229;-70
2022/07/26 02:43:35;;;;;;;4.30;1.88;;;;;;;23.11;73.99;96137.56;5037720;28;20209;-70
2022/07/26 02:46:03;;;;;;;5.25;2.00;;;;;;;23.09;71.76;96131.63;5038346;28;20201;-70
2022/07/26 02:48:29;;;;;;;3.10;1.80;;;;;;;23.04;73.86;96130.75;5037983;28;20201;-71
2022/07/26 02:50:56;;;;;;;4.38;1.85;;;;;;;23.02;75.30;96132.91;5034943;28;20232;-71
2022/07/26 02:53:22;;;;;;;4.20;1.70;;;;;;;22.92;71.08;96140.84;5037472;28;20205;-70
2022/07/26 02:55:49;;;;;;;4.63;1.83;;;;;;;22.89;66.97;96136.00;5038235;28;20993;-70
2022/07/26 02:58:15;;;;;;;3.63;1.98;;;;;;;22.79;68.55;96134.00;5037979;28;20685;-70
2022/07/26 03:00:42;;;;;;;3.55;1.75;;;;;;;23.02;70.05;96132.91;5038586;28;20205;-70
2022/07/26 03:03:12;;;;;;;3.75;1.70;;;;;;;23.17;72.50;96133.84;5037078;28;20232;-70
2022/07/26 03:05:39;;;;;;;8.93;2.03;;;;;;;22.99;68.08;96141.50;5037312;28;20211;-70
2022/07/26 03:08:07;;;;;;;4.85;1.85;;;;;;;23.11;68.72;96142.13;5038054;28;21164;-70
2022/07/26 03:10:33;;;;;;;2.97;1.80;;;;;;;23.13;68.10;96139.97;5038089;28;20201;-70
2022/07/26 03:13:00;;;;;;;2.90;1.60;;;;;;;23.04;66.81;96136.13;5037183;28;20713;-71
2022/07/26 03:15:26;;;;;;;4.22;1.80;;;;;;;23.09;66.66;96144.25;5037908;28;20229;-70
2022/07/26 03:17:54;;;;;;;5.82;1.70;;;;;;;23.14;67.21;96142.44;5038425;28;20201;-70
2022/07/26 03:20:22;;;;;;;2.70;1.55;;;;;;;23.27;66.42;96147.38;5037039;28;20231;-71
2022/07/26 03:22:48;;;;;;;6.03;1.75;;;;;;;23.15;66.54;96145.91;5037204;28;20236;-70
2022/07/26 03:25:15;;;;;;;6.00;1.75;;;;;;;22.97;68.31;96146.28;5037960;28;20212;-70
2022/07/26 03:27:41;;;;;;;4.72;1.73;;;;;;;23.06;68.34;96139.41;5037865;28;20201;-70
2022/07/26 03:30:10;;;;;;;3.33;1.70;;;;;;;23.19;68.00;96137.06;5037463;28;20209;-71
2022/07/26 03:32:36;;;;;;;3.90;1.70;;;;;;;23.19;71.64;96134.38;5037007;28;20226;-69
2022/07/26 03:35:03;;;;;;;1.90;1.63;;;;;;;23.12;68.31;96131.13;5037646;28;20205;-70
2022/07/26 03:37:31;;;;;;;3.90;1.70;;;;;;;23.17;66.69;96136.53;5037185;28;20874;-70
2022/07/26 03:39:58;;;;;;;4.78;1.92;;;;;;;22.91;68.82;96147.28;5037071;28;20205;-70
2022/07/26 03:42:24;;;;;;;4.30;1.63;;;;;;;22.87;68.35;96141.63;5037952;28;20224;-70
2022/07/26 03:44:51;;;;;;;7.63;1.88;;;;;;;22.93;69.21;96135.22;5037611;28;20205;-70
2022/07/26 03:47:17;;;;;;;5.70;1.98;;;;;;;22.81;69.15;96141.81;5037027;28;20204;-70
2022/07/26 03:49:43;;;;;;;5.70;1.95;;;;;;;22.83;68.45;96150.44;5035950;28;20209;-71
2022/07/26 03:52:10;;;;;;;2.97;1.60;;;;;;;22.60;67.99;96147.28;5038977;28;20228;-70
2022/07/26 03:54:38;;;;;;;2.95;1.48;;;;;;;22.56;68.23;96163.06;5041052;28;20232;-69
2022/07/26 03:57:04;;;;;;;5.00;1.60;;;;;;;22.59;68.39;96167.94;5041707;28;20280;-70
2022/07/26 03:59:30;;;;;;;5.78;2.22;;;;;;;22.21;69.80;96173.38;5041551;28;20287;-70
2022/07/26 04:01:56;;;;;;;4.22;1.80;;;;;;;22.17;70.26;96172.25;5040590;28;20225;-70
2022/07/26 04:04:23;;;;;;;2.80;1.50;;;;;;;22.08;70.87;96168.41;5041104;28;20197;-70
2022/07/26 04:06:49;;;;;;;3.65;1.45;;;;;;;22.06;70.70;96172.38;5041698;28;20216;-70
2022/07/26 04:09:16;;;;;;;7.25;1.80;;;;;;;21.91;71.93;96171.38;5040686;28;21072;-70
2022/07/26 04:11:44;;;;;;;3.58;1.70;;;;;;;22.11;71.48;96170.56;5041916;28;20225;-70
2022/07/26 04:14:11;;;;;;;2.88;1.50;;;;;;;21.98;71.94;96172.00;5041147;28;20201;-70
2022/07/26 04:16:38;;;;;;;5.53;1.70;;;;;;;21.85;73.13;96172.38;5040881;28;20229;-69
2022/07/26 04:19:05;;;;;;;6.40;1.73;;;;;;;21.83;73.03;96167.25;5041672;28;20201;-70
2022/07/26 04:21:31;;;;;;;2.95;1.85;;;;;;;21.67;73.61;96175.34;5041930;28;20225;-70
2022/07/26 04:23:58;;;;;;;4.93;2.20;;;;;;;21.80;73.76;96169.59;5041290;28;20583;-70
2022/07/26 04:26:24;;;;;;;7.55;1.73;;;;;;;21.76;73.91;96166.59;5041010;28;20658;-70
2022/07/26 04:29:07;;;;;;;3.70;1.77;;;;;;;21.74;74.20;96167.91;5007362;28;20217;-70
2022/07/26 04:31:34;;;;;;;3.05;1.48;;;;;;;21.76;73.42;96171.97;5041692;28;20229;-70
2022/07/26 04:34:00;;;;;;;3.95;1.60;;;;;;;21.74;73.39;96167.91;5040947;28;20216;-70
2022/07/26 04:36:26;;;;;;;2.65;1.50;;;;;;;21.77;73.24;96167.44;5041613;28;20611;-70
2022/07/26 04:38:53;;;;;;;4.07;1.52;;;;;;;21.84;73.19;96165.38;5041304;28;20212;-70
2022/07/26 04:41:19;;;;;;;2.63;1.52;;;;;;;21.93;72.33;96169.25;5041047;28;20221;-70
2022/07/26 04:43:46;;;;;;;3.50;1.67;;;;;;;21.84;73.14;96170.72;5040820;28;20208;-70
2022/07/26 04:46:14;;;;;;;6.25;1.50;;;;;;;22.04;72.58;96172.59;5041466;28;20197;-70
2022/07/26 04:48:40;;;;;;;5.75;1.98;;;;;;;22.02;72.33;96175.81;5040932;28;20201;-69
2022/07/26 04:51:06;;;;;;;1.65;1.40;;;;;;;22.08;71.96;96179.13;5038845;28;20209;-70
2022/07/26 04:53:33;;;;;;;2.92;1.52;;;;;;;21.94;72.74;96176.25;5040336;28;20201;-70
2022/07/26 04:55:59;;;;;;;7.25;1.70;;;;;;;21.98;72.03;96177.38;5041010;28;20229;-70
2022/07/26 04:58:26;;;;;;;4.40;1.77;;;;;;;22.02;72.63;96181.16;5040791;28;20198;-70
2022/07/26 05:00:52;;;;;;;3.95;1.50;;;;;;;22.21;73.06;96184.13;5039232;28;20209;-70
2022/07/26 05:03:23;;;;;;;4.93;1.80;;;;;;;22.33;72.03;96182.13;5038187;28;20233;-70
2022/07/26 05:05:50;;;;;;;5.30;1.48;;;;;;;22.29;72.32;96186.41;5038861;28;20205;-69
2022/07/26 05:08:16;;;;;;;3.42;1.65;;;;;;;22.40;74.88;96174.72;5039396;28;20575;-70
2022/07/26 05:10:43;;;;;;;2.65;1.40;;;;;;;22.41;72.74;96175.53;5038832;28;20729;-70
2022/07/26 05:13:09;;;;;;;6.35;1.55;;;;;;;22.35;72.95;96171.97;5038042;28;20241;-71
2022/07/26 05:15:36;;;;;;;7.13;1.77;;;;;;;22.42;71.29;96172.56;5039250;28;20220;-71
2022/07/26 05:18:04;;;;;;;2.22;1.65;;;;;;;22.58;71.98;96182.44;5038387;28;20221;-71
2022/07/26 05:20:33;;;;;;;1.45;1.30;;;;;;;22.46;73.96;96179.06;5038668;28;20209;-70
2022/07/26 05:23:00;;;;;;;2.83;1.67;;;;;;;22.23;71.98;96181.97;5038086;28;20343;-70
2022/07/26 05:25:27;;;;;;;5.22;1.88;;;;;;;22.50;70.84;96172.13;5038840;28;20205;-70
2022/07/26 05:27:53;;;;;;;9.48;1.63;;;;;;;22.36;71.71;96170.09;5038752;28;20201;-71
2022/07/26 05:30:20;;;;;;;3.35;1.52;;;;;;;22.26;71.38;96180.72;5038255;28;20204;-70
2022/07/26 05:32:47;;;;;;;2.78;1.33;;;;;;;22.43;71.13;96186.81;5037924;28;20224;-71
2022/07/26 05:35:13;;;;;;;3.80;1.48;;;;;;;22.09;72.14;96179.94;5038148;28;20205;-70
2022/07/26 05:37:42;;;;;;;2.33;1.30;;;;;;;22.18;71.86;96195.34;5038620;28;20228;-70
2022/07/26 05:40:09;;;;;;;3.72;1.27;;;;;;;22.03;71.00;96196.22;5038721;28;20322;-70
2022/07/26 05:42:36;;;;;;;2.08;1.20;;;;;;;21.95;70.15;96200.13;5037769;28;20232;-69
2022/07/26 05:45:03;;;;;;;2.13;1.33;;;;;;;21.90;71.19;96199.25;5038281;28;20205;-71
2022/07/26 05:47:29;;;;;;;3.55;1.70;;;;;;;21.92;71.34;96200.66;5038439;28;20197;-69
2022/07/26 05:49:56;;;;;;;5.70;1.60;;;;;;;22.14;70.40;96196.09;5036160;28;20579;-70
2022/07/26 05:52:23;;;;;;;2.22;1.20;;;;;;;22.05;70.79;96190.34;5037128;28;20217;-70
2022/07/26 05:54:51;;;;;;;4.28;1.27;;;;;;;22.20;70.13;96187.06;5038356;28;20209;-69
2022/07/26 05:57:17;;;;;;;2.00;1.13;;;;;;;22.22;70.41;96180.38;5038499;28;20236;-71
2022/07/26 05:59:44;;;;;;;2.53;1.10;;;;;;;22.17;70.45;96180.31;5038060;28;20208;-70
2022/07/26 06:02:10;;;;;;;5.55;1.23;;;;;;;22.12;68.96;96176.75;5038242;28;20319;-70
2022/07/26 06:04:37;;;;;;;3.58;1.50;;;;;;;22.26;69.10;96180.72;5038283;28;20216;-69
2022/07/26 06:07:03;;;;;;;2.08;1.30;;;;;;;22.34;68.26;96183.78;5037428;28;20728;-69
2022/07/26 06:09:30;;;;;;;2.85;1.40;;;;;;;22.53;67.99;96186.94;5037905;28;20212;-71
2022/07/26 06:11:58;;;;;;;1.88;1.17;;;;;;;22.56;67.23;96187.25;5037246;28;20778;-70
2022/07/26 06:14:25;;;;;;;2.08;1.27;;;;;;;22.36;68.37;96186.19;5038007;28;20292;-71
2022/07/26 06:16:51;;;;;;;3.40;1.20;;;;;;;22.47;68.36;96182.59;5037052;28;20233;-70
2022/07/26 06:19:18;;;;;;;1.73;1.20;;;;;;;22.56;67.25;96186.44;5037112;28;20759;-69
2022/07/26 06:21:45;;;;;;;4.10;1.63;;;;;;;22.67;67.53;96183.63;5037467;28;20240;-69
2022/07/26 06:24:12;;;;;;;2.17;1.38;;;;;;;22.68;67.61;96191.41;5036524;28;20205;-70
2022/07/26 06:26:38;;;;;;;2.15;1.40;;;;;;;22.63;68.05;96190.53;5036950;28;20201;-70
2022/07/26 06:29:06;;;;;;;2.45;1.40;;;;;;;22.67;67.98;96186.31;5037711;28;20208;-69
2022/07/26 06:31:33;;;;;;;1.55;1.15;;;;;;;22.79;67.51;96186.94;5037649;28;20243;-70
2022/07/26 06:33:59;;;;;;;2.65;1.30;;;;;;;22.77;67.44;96195.28;5035430;28;20205;-70
2022/07/26 06:36:25;;;;;;;3.38;1.10;;;;;;;22.70;69.36;96196.53;5036044;28;20205;-70
2022/07/26 06:38:53;;;;;;;5.38;1.30;;;;;;;22.86;67.75;96192.91;5037401;28;20210;-70
2022/07/26 06:41:20;;;;;;;2.72;1.20;;;;;;;22.82;68.43;96198.00;5036285;28;20221;-69
2022/07/26 06:43:46;;;;;;;2.95;1.20;;;;;;;23.08;67.69;96196.41;5036499;28;20212;-71
2022/07/26 06:46:15;;;;;;;3.10;1.20;;;;;;;23.07;67.47;96202.84;5036569;28;20205;-71
2022/07/26 06:48:42;;;;;;;3.45;1.30;;;;;;;23.09;67.32;96206.09;5037027;28;20402;-69
2022/07/26 06:51:09;;;;;;;4.38;1.30;;;;;;;22.85;68.92;96202.06;5034179;28;21123;-70
2022/07/26 06:53:35;;;;;;;4.78;1.10;;;;;;;23.03;69.30;96199.84;5036566;28;20209;-70
2022/07/26 06:56:02;;;;;;;2.30;1.20;;;;;;;23.19;67.79;96192.72;5036380;28;20201;-69
2022/07/26 06:58:28;;;;;;;2.70;1.45;;;;;;;23.30;67.46;96185.28;5037825;28;20231;-70
2022/07/26 07:00:55;;;;;;;1.85;1.20;;;;;;;23.52;66.91;96193.28;5041801;28;20204;-70
2022/07/26 07:03:23;;;;;;;8.68;1.67;;;;;;;23.69;65.57;96192.09;5042428;28;20206;-71
2022/07/26 07:05:49;;;;;;;4.20;1.20;;;;;;;23.68;65.88;96195.81;5044029;28;20209;-70
2022/07/26 07:08:15;;;;;;;3.35;1.10;;;;;;;23.52;67.93;96186.03;5043584;28;20204;-71
2022/07/26 07:10:42;;;;;;;3.47;1.10;;;;;;;23.38;67.50;96195.59;5044364;28;20201;-71
2022/07/26 07:13:09;;;;;;;1.92;1.25;;;;;;;23.54;67.98;96188.47;5042603;28;20799;-70
2022/07/26 07:15:35;;;;;;;6.22;1.50;;;;;;;23.45;67.04;96182.72;5044571;28;20200;-71
2022/07/26 07:18:02;;;;;;;6.40;1.52;;;;;;;23.65;66.79;96182.88;5042936;28;20233;-71
2022/07/26 07:20:29;;;;;;;2.88;1.45;;;;;;;23.69;67.30;96194.78;5041896;28;20701;-69
2022/07/26 07:22:56;;;;;;;1.70;1.33;;;;;;;23.50;67.44;96181.97;5043048;28;20231;-70
2022/07/26 07:25:23;;;;;;;2.13;1.08;;;;;;;23.41;66.64;96186.22;5043653;28;20216;-70
2022/07/26 07:27:49;;;;;;;3.05;1.83;;;;;;;23.34;66.97;96183.75;5044272;28;20263;-70
2022/07/26 07:30:16;;;;;;;1.70;1.20;;;;;;;23.33;67.42;96179.44;5043863;28;20313;-70
2022/07/26 07:32:43;;;;;;;2.17;1.40;;;;;;;23.47;67.50;96175.22;5042888;28;20253;-71
2022/07/26 07:35:10;;;;;;;3.78;1.52;;;;;;;23.41;67.92;96181.63;5044190;28;20205;-70
2022/07/26 07:37:37;;;;;;;5.20;1.27;;;;;;;23.31;67.88;96175.38;5044628;28;20229;-71
2022/07/26 07:40:06;;;;;;;4.65;1.50;;;;;;;23.18;67.83;96183.03;5043212;28;20213;-70
2022/07/26 07:42:32;;;;;;;2.10;1.63;;;;;;;23.14;68.74;96187.31;5042577;28;20224;-70
2022/07/26 07:44:59;;;;;;;1.55;1.20;;;;;;;23.15;68.90;96188.94;5042814;28;20214;-70
2022/07/26 07:47:25;;;;;;;3.92;1.55;;;;;;;23.15;68.40;96186.25;5043646;28;20705;-71
2022/07/26 07:49:52;;;;;;;3.05;1.60;;;;;;;23.16;68.97;96174.44;5041308;28;20212;-70
2022/07/26 07:52:19;;;;;;;2.30;1.40;;;;;;;23.09;68.01;96177.34;5044149;28;20246;-71
2022/07/26 07:54:47;;;;;;;3.35;1.30;;;;;;;23.36;67.63;96175.41;5042673;28;20761;-70
2022/07/26 07:57:13;;;;;;;3.33;1.30;;;;;;;23.59;67.40;96173.16;5041874;28;20223;-71
2022/07/26 07:59:39;;;;;;;3.25;1.60;;;;;;;23.74;66.76;96170.59;5043486;28;20224;-71
2022/07/26 08:02:07;;;;;;;3.05;1.70;;;;;;;23.97;64.16;96173.69;5042654;28;20225;-70
2022/07/26 08:04:33;;;;;;;2.35;1.40;;;;;;;24.40;62.67;96167.19;5042403;28;20572;-71
2022/07/26 08:06:59;;;;;;;2.75;1.52;;;;;;;24.45;63.62;96164.50;5043814;28;20204;-71
2022/07/26 08:09:26;;;;;;;4.75;1.50;;;;;;;24.85;63.28;96171.63;5043637;28;20217;-70
2022/07/26 08:11:54;;;;;;;2.92;1.65;;;;;;;24.20;63.18;96167.09;5043333;28;20229;-70
2022/07/26 08:14:21;;;;;;;1.70;1.13;;;;;;;23.89;64.36;96165.28;5041070;28;20205;-71
2022/07/26 08:16:47;;;;;;;3.13;1.80;;;;;;;23.67;66.40;96171.88;5040640;28;20197;-72
2022/07/26 08:19:14;;;;;;;4.35;1.65;;;;;;;23.68;65.96;96166.22;5039729;28;20227;-72
2022/07/26 08:21:41;;;;;;;4.38;1.50;;;;;;;23.84;65.10;96173.34;5041957;28;20228;-70
2022/07/26 08:24:09;;;;;;;5.45;1.52;;;;;;;23.60;64.17;96177.47;5038510;28;20262;-72
2022/07/26 08:26:36;;;;;;;6.20;1.77;;;;;;;23.65;64.54;96182.88;5041265;28;20213;-72
2022/07/26 08:29:04;;;;;;;3.40;1.40;;;;;;;23.84;63.88;96191.38;5047309;28;20208;-72
2022/07/26 08:31:30;;;;;;;4.72;1.67;;;;;;;23.98;62.38;96187.94;5045869;28;20228;-72
2022/07/26 08:33:57;;;;;;;5.50;1.58;;;;;;;24.39;61.19;96184.41;5043694;28;20216;-71
2022/07/26 08:36:24;;;;;;;3.78;1.50;;;;;;;24.42;60.24;96179.31;5045020;28;20208;-71
2022/07/26 08:38:51;;;;;;;1.58;1.23;;;;;;;24.49;59.08;96173.66;5048185;28;20229;-71
2022/07/26 08:41:17;;;;;;;2.72;1.50;;;;;;;24.90;59.48;96176.22;5046752;28;20226;-71
2022/07/26 08:43:44;;;;;;;2.28;1.45;;;;;;;25.13;58.85;96181.94;5051377;28;20225;-71
2022/07/26 08:46:12;;;;;;;2.08;1.48;;;;;;;25.11;58.07;96181.38;5050715;28;20214;-71
2022/07/26 08:48:39;;;;;;;3.30;1.35;;;;;;;24.81;58.19;96184.00;5051698;28;20637;-72
2022/07/26 08:51:08;;;;;;;4.35;1.50;;;;;;;24.76;58.53;96186.69;5050812;28;20201;-71
2022/07/26 08:53:36;;;;;;;2.28;1.63;;;;;;;24.42;59.30;96190.09;5050098;28;20213;-71
2022/07/26 08:56:03;;;;;;;2.10;1.45;;;;;;;24.21;59.27;96192.91;5048969;28;20213;-71
2022/07/26 08:58:32;;;;;;;2.53;1.40;;;;;;;24.18;58.60;96196.16;5049663;28;20224;-71
2022/07/26 09:01:07;;;;;;;4.28;1.55;;;;;;;24.37;59.07;96197.31;5048329;28;20843;-71
2022/07/26 09:03:37;;;;;;;7.28;1.80;;;;;;;24.36;59.17;96190.31;5048205;28;20839;-71
2022/07/26 09:06:15;;;;;;;3.05;1.48;;;;;;;24.81;57.38;96194.78;5048175;28;20201;-71
2022/07/26 09:08:43;;;;;;;2.25;1.60;;;;;;;25.08;57.38;96184.63;5049036;28;20209;-71
2022/07/26 09:11:30;;;;;;;3.13;1.67;;;;;;;25.50;58.09;96177.91;5049167;28;20300;-72
2022/07/26 09:13:59;;;;;;;4.88;1.60;;;;;;;25.81;53.15;96174.09;5048925;28;20205;-72
2022/07/26 09:16:26;;;;;;;2.22;1.40;;;;;;;25.71;50.86;96184.13;5050142;28;20198;-71
2022/07/26 09:18:56;;;;;;;2.72;1.20;;;;;;;26.09;50.46;96177.00;5050738;28;20240;-71
2022/07/26 09:21:27;;;;;;;2.42;1.33;;;;;;;26.28;50.15;96169.13;5048248;28;20278;-71
2022/07/26 09:23:54;;;;;;;4.60;1.30;;;;;;;26.22;54.38;96175.63;5045373;28;20212;-71
2022/07/26 09:26:20;;;;;;;4.35;1.67;;;;;;;25.46;52.55;96176.03;5049684;28;20216;-72
2022/07/26 09:29:01;;;;;;;2.10;1.58;;;;;;;25.33;52.64;96187.31;5048351;28;20201;-71
2022/07/26 09:31:28;;;;;;;2.80;1.80;;;;;;;24.91;53.52;96183.22;5047225;28;20217;-72
2022/07/26 09:33:57;;;;;;;2.97;1.70;;;;;;;24.75;52.91;96190.47;5048523;28;20411;-71
2022/07/26 09:36:24;;;;;;;3.03;1.50;;;;;;;24.60;52.84;96185.03;5048550;28;20255;-72
2022/07/26 09:38:52;;;;;;;3.17;1.35;;;;;;;25.03;52.68;96191.88;5045171;28;20229;-71
2022/07/26 09:41:20;;;;;;;5.68;1.70;;;;;;;25.29;52.38;96186.25;5045659;28;20980;-71
2022/07/26 09:43:46;;;;;;;4.68;1.58;;;;;;;25.71;51.48;96184.13;5044431;28;20205;-73
2022/07/26 09:46:13;;;;;;;2.53;1.50;;;;;;;25.75;51.20;96182.50;5046583;28;20213;-73
2022/07/26 09:48:39;;;;;;;2.22;1.55;;;;;;;25.86;51.11;96174.94;5045536;28;20206;-73
2022/07/26 09:51:08;;;;;;;3.55;1.80;;;;;;;26.36;53.02;96172.06;5044738;28;20194;-73
2022/07/26 09:53:39;;;;;;;2.38;1.70;;;;;;;26.55;52.68;96171.19;5044561;28;20209;-73
2022/07/26 09:56:07;;;;;;;2.60;1.52;;;;;;;25.67;53.85;96177.63;5045530;28;20262;-73
2022/07/26 09:58:35;;;;;;;6.75;1.88;;;;;;;25.33;53.75;96203.53;5048247;28;20229;-73
2022/07/26 10:01:02;;;;;;;2.70;1.70;;;;;;;24.88;54.93;96205.31;5042556;28;20745;-73
2022/07/26 10:03:29;;;;;;;3.85;1.70;;;;;;;24.69;55.54;96201.50;5038639;28;20197;-73
2022/07/26 10:05:57;;;;;;;3.35;1.95;;;;;;;25.22;54.23;96204.59;5037030;28;20207;-70
2022/07/26 10:08:25;;;;;;;3.33;1.90;;;;;;;25.54;53.62;96194.38;5037887;28;20271;-70
2022/07/26 10:10:55;;;;;;;2.70;1.60;;;;;;;26.14;51.55;96190.50;5037916;28;20209;-70
2022/07/26 10:13:22;;;;;;;4.47;1.80;;;;;;;26.14;51.20;96195.91;5037546;28;20278;-70
2022/07/26 10:15:50;;;;;;;2.80;1.92;;;;;;;26.59;51.14;96196.59;5038525;28;20225;-70
2022/07/26 10:18:43;;;;;;;3.15;1.70;;;;;;;26.81;47.47;96193.53;5038440;28;20225;-70
2022/07/26 10:21:24;;;;;;;2.72;1.42;;;;;;;26.55;47.02;96190.13;5037623;28;20684;-70
2022/07/26 10:23:55;;;;;;;4.90;1.40;;;;;;;26.21;47.91;96191.03;5037537;28;20244;-70
2022/07/26 10:26:44;;;;;;;5.53;1.77;;;;;;;26.64;47.05;96187.63;5038231;28;20212;-70
2022/07/26 10:29:24;;;;;;;4.53;1.50;;;;;;;27.24;45.60;96182.69;5038177;28;20205;-70
2022/07/26 10:32:18;;;;;;;3.72;1.45;;;;;;;27.30;47.21;96187.00;5037660;28;20596;-70
2022/07/26 10:34:46;;;;;;;4.70;1.70;;;;;;;26.43;47.16;96189.63;5038162;28;20209;-70
2022/07/26 10:37:23;;;;;;;2.05;1.48;;;;;;;26.27;49.49;96184.50;5038412;28;20228;-70
2022/07/26 10:40:09;;;;;;;5.22;1.73;;;;;;;25.89;50.55;96193.28;5037475;28;21163;-70
2022/07/26 10:42:43;;;;;;;3.72;1.50;;;;;;;25.75;47.82;96193.28;5036820;28;20229;-70
2022/07/26 10:45:17;;;;;;;3.60;1.60;;;;;;;25.81;48.76;96192.22;5037914;28;20355;-70
2022/07/26 10:48:15;;;;;;;3.95;1.55;;;;;;;26.36;45.36;96184.78;5038117;28;20673;-70
2022/07/26 10:50:43;;;;;;;3.72;1.60;;;;;;;26.97;45.35;96176.13;5034736;28;20259;-70
2022/07/26 10:53:16;;;;;;;2.72;1.30;;;;;;;27.00;41.26;96176.38;5037876;28;20228;-70
2022/07/26 10:55:49;;;;;;;3.40;1.27;;;;;;;27.60;42.77;96174.06;5038410;28;20220;-70
2022/07/26 10:58:15;;;;;;;6.78;1.65;;;;;;;27.80;42.12;96171.97;5038391;28;20229;-70
2022/07/26 11:00:54;;;;;;;1.98;1.27;;;;;;;27.66;42.04;96170.22;5038409;28;20216;-70
2022/07/26 11:03:21;;;;;;;4.00;1.30;;;;;;;27.51;42.15;96175.72;5036704;28;21230;-70
2022/07/26 11:05:48;;;;;;;4.05;1.50;;;;;;;27.61;42.19;96167.56;5038612;28;20205;-70
2022/07/26 11:08:14;;;;;;;1.38;1.20;;;;;;;27.77;40.99;96174.44;5039067;28;20205;-70
2022/07/26 11:10:42;;;;;;;2.72;1.40;;;;;;;27.91;41.49;96169.97;5038403;28;20205;-70
2022/07/26 11:13:13;;;;;;;2.42;1.50;;;;;;;28.43;40.88;96174.25;5036996;28;20232;-70
2022/07/26 11:15:43;;;;;;;2.85;1.27;;;;;;;27.89;40.82;96183.78;5038025;28;20396;-70
2022/07/26 11:18:18;;;;;;;3.08;1.27;;;;;;;27.69;39.82;96167.72;5035017;28;20229;-71
2022/07/26 11:20:47;;;;;;;1.75;1.25;;;;;;;26.95;39.80;96175.56;5037185;28;20223;-70
2022/07/26 11:23:24;;;;;;;2.25;1.17;;;;;;;27.30;40.38;96168.88;5036081;28;20233;-70
2022/07/26 11:26:22;;;;;;;1.38;1.08;;;;;;;27.78;39.17;96167.94;5036811;28;20216;-70
2022/07/26 11:28:53;;;;;;;5.15;1.40;;;;;;;27.49;39.35;96161.66;5036930;28;20205;-71
2022/07/26 11:31:22;;;;;;;5.82;1.23;;;;;;;27.53;39.77;96164.59;5036653;28;20225;-70
2022/07/26 11:33:50;;;;;;;4.03;1.38;;;;;;;27.25;40.23;96168.91;5035877;28;20244;-70
2022/07/26 11:36:18;;;;;;;3.95;1.30;;;;;;;27.14;40.15;96159.22;5036855;28;20584;-70
2022/07/26 11:38:50;;;;;;;2.33;1.30;;;;;;;26.96;40.69;96158.28;5037605;28;20224;-70